Agata, Russia
Current Conditions -  °F | °C
As of 12:00 AM on Friday 19 Dec 2014 (Local Time) from USNN Reporting Station
Overcast Overcast  
Wind Chill: 10°   Ceiling: 700
Heat Index: 23°   Visibility: 6mi
Dew Point: 19°   Wind: 16mph
Humidity: 86%   Direction: 190°S
Pressure: 30.06"   Gusts: 22mph
Location:  66.92°N, 93.5°E
Report Text: USNN 181700Z 19007G10MPS 9999 OVC007 M05/M07 Q1018 NOSIG RMKQFE759 2135//42
Loading
Personal Weather Stations






























Interactive Weather Map New forecast layout! Learn more

10-Day Weather Forecast

Advertisements
Track Severe Weather on mobile